sensor_id;sensor_type;location;lat;lon;timestamp;P1;durP1;ratioP1;P2;durP2;ratioP2
75038;SDS011;63609;49.992;14.512;2023-03-01T00:01:39;38.35;;;15.50;;
75038;SDS011;63609;49.992;14.512;2023-03-01T00:04:06;39.92;;;17.42;;
75038;SDS011;63609;49.992;14.512;2023-03-01T00:06:35;43.88;;;17.15;;
75038;SDS011;63609;49.992;14.512;2023-03-01T00:09:02;37.30;;;15.07;;
75038;SDS011;63609;49.992;14.512;2023-03-01T00:11:33;44.47;;;17.95;;
75038;SDS011;63609;49.992;14.512;2023-03-01T00:14:00;40.80;;;16.83;;
75038;SDS011;63609;49.992;14.512;2023-03-01T00:16:30;49.78;;;18.30;;
75038;SDS011;63609;49.992;14.512;2023-03-01T00:19:00;43.53;;;16.83;;
75038;SDS011;63609;49.992;14.512;2023-03-01T00:21:27;40.30;;;17.27;;
75038;SDS011;63609;49.992;14.512;2023-03-01T00:23:55;46.50;;;17.35;;
75038;SDS011;63609;49.992;14.512;2023-03-01T00:26:23;40.72;;;16.75;;
75038;SDS011;63609;49.992;14.512;2023-03-01T00:28:51;36.47;;;16.65;;
75038;SDS011;63609;49.992;14.512;2023-03-01T00:31:20;41.03;;;17.02;;
75038;SDS011;63609;49.992;14.512;2023-03-01T00:33:51;44.67;;;16.13;;
75038;SDS011;63609;49.992;14.512;2023-03-01T00:36:20;42.95;;;17.25;;
75038;SDS011;63609;49.992;14.512;2023-03-01T00:41:16;33.65;;;14.23;;
75038;SDS011;63609;49.992;14.512;2023-03-01T00:43:44;46.53;;;17.25;;
75038;SDS011;63609;49.992;14.512;2023-03-01T00:46:15;39.53;;;16.23;;
75038;SDS011;63609;49.992;14.512;2023-03-01T00:48:44;44.15;;;16.13;;
75038;SDS011;63609;49.992;14.512;2023-03-01T00:51:13;45.20;;;15.45;;
75038;SDS011;63609;49.992;14.512;2023-03-01T00:53:51;39.00;;;15.77;;
75038;SDS011;63609;49.992;14.512;2023-03-01T00:56:20;39.33;;;16.67;;
75038;SDS011;63609;49.992;14.512;2023-03-01T00:58:47;39.63;;;16.63;;
75038;SDS011;63609;49.992;14.512;2023-03-01T01:01:16;41.65;;;15.50;;
75038;SDS011;63609;49.992;14.512;2023-03-01T01:06:21;39.28;;;16.02;;
75038;SDS011;63609;49.992;14.512;2023-03-01T01:08:50;50.00;;;18.95;;
75038;SDS011;63609;49.992;14.512;2023-03-01T01:11:18;36.75;;;15.75;;
75038;SDS011;63609;49.992;14.512;2023-03-01T01:13:49;51.45;;;17.63;;
75038;SDS011;63609;49.992;14.512;2023-03-01T01:16:17;41.05;;;15.30;;
75038;SDS011;63609;49.992;14.512;2023-03-01T01:18:46;37.28;;;15.70;;
75038;SDS011;63609;49.992;14.512;2023-03-01T01:21:14;42.70;;;15.23;;
75038;SDS011;63609;49.992;14.512;2023-03-01T01:23:43;45.70;;;16.60;;
75038;SDS011;63609;49.992;14.512;2023-03-01T01:26:16;39.92;;;15.35;;
75038;SDS011;63609;49.992;14.512;2023-03-01T01:28:48;35.30;;;15.10;;
75038;SDS011;63609;49.992;14.512;2023-03-01T01:31:17;44.38;;;15.35;;
75038;SDS011;63609;49.992;14.512;2023-03-01T01:33:45;39.58;;;15.70;;
75038;SDS011;63609;49.992;14.512;2023-03-01T01:36:12;39.42;;;15.75;;
75038;SDS011;63609;49.992;14.512;2023-03-01T01:38:39;39.83;;;15.07;;
75038;SDS011;63609;49.992;14.512;2023-03-01T01:41:09;43.88;;;16.13;;
75038;SDS011;63609;49.992;14.512;2023-03-01T01:48:57;38.13;;;15.60;;
75038;SDS011;63609;49.992;14.512;2023-03-01T01:51:38;39.97;;;16.75;;
75038;SDS011;63609;49.992;14.512;2023-03-01T01:54:10;37.40;;;16.35;;
75038;SDS011;63609;49.992;14.512;2023-03-01T01:56:42;53.55;;;18.73;;
75038;SDS011;63609;49.992;14.512;2023-03-01T01:59:12;44.17;;;16.75;;
75038;SDS011;63609;49.992;14.512;2023-03-01T02:01:40;45.03;;;18.08;;
75038;SDS011;63609;49.992;14.512;2023-03-01T02:04:07;46.35;;;16.02;;
75038;SDS011;63609;49.992;14.512;2023-03-01T02:06:37;42.40;;;17.90;;
75038;SDS011;63609;49.992;14.512;2023-03-01T02:09:16;40.50;;;15.75;;
75038;SDS011;63609;49.992;14.512;2023-03-01T02:11:47;43.65;;;17.88;;
75038;SDS011;63609;49.992;14.512;2023-03-01T02:14:15;48.17;;;16.17;;
75038;SDS011;63609;49.992;14.512;2023-03-01T02:16:42;37.80;;;17.02;;
75038;SDS011;63609;49.992;14.512;2023-03-01T02:19:12;44.50;;;16.10;;
75038;SDS011;63609;49.992;14.512;2023-03-01T02:24:57;39.40;;;16.50;;
75038;SDS011;63609;49.992;14.512;2023-03-01T02:27:30;35.78;;;15.20;;
75038;SDS011;63609;49.992;14.512;2023-03-01T02:30:04;43.75;;;16.75;;
75038;SDS011;63609;49.992;14.512;2023-03-01T02:32:33;41.33;;;16.70;;
75038;SDS011;63609;49.992;14.512;2023-03-01T02:35:02;46.72;;;17.70;;
75038;SDS011;63609;49.992;14.512;2023-03-01T02:37:33;43.60;;;16.75;;
75038;SDS011;63609;49.992;14.512;2023-03-01T02:40:04;44.55;;;16.38;;
75038;SDS011;63609;49.992;14.512;2023-03-01T02:42:40;42.05;;;15.93;;
75038;SDS011;63609;49.992;14.512;2023-03-01T02:45:22;39.63;;;15.85;;
75038;SDS011;63609;49.992;14.512;2023-03-01T02:47:49;46.20;;;16.58;;
75038;SDS011;63609;49.992;14.512;2023-03-01T02:52:54;35.38;;;15.25;;
75038;SDS011;63609;49.992;14.512;2023-03-01T02:55:23;43.60;;;16.27;;
75038;SDS011;63609;49.992;14.512;2023-03-01T03:00:22;42.78;;;16.35;;
75038;SDS011;63609;49.992;14.512;2023-03-01T03:02:55;44.05;;;17.02;;
75038;SDS011;63609;49.992;14.512;2023-03-01T03:05:25;46.28;;;18.27;;
75038;SDS011;63609;49.992;14.512;2023-03-01T03:07:56;42.25;;;16.80;;
75038;SDS011;63609;49.992;14.512;2023-03-01T03:10:26;49.83;;;18.90;;
75038;SDS011;63609;49.992;14.512;2023-03-01T03:12:56;45.65;;;18.13;;
75038;SDS011;63609;49.992;14.512;2023-03-01T03:15:25;53.60;;;18.63;;
75038;SDS011;63609;49.992;14.512;2023-03-01T03:17:55;51.10;;;20.33;;
75038;SDS011;63609;49.992;14.512;2023-03-01T03:20:25;49.40;;;19.42;;
75038;SDS011;63609;49.992;14.512;2023-03-01T03:22:59;51.80;;;18.85;;
75038;SDS011;63609;49.992;14.512;2023-03-01T03:25:27;43.45;;;18.67;;
75038;SDS011;63609;49.992;14.512;2023-03-01T03:27:56;45.03;;;17.83;;
75038;SDS011;63609;49.992;14.512;2023-03-01T03:30:29;36.58;;;15.35;;
75038;SDS011;63609;49.992;14.512;2023-03-01T03:33:02;43.90;;;17.40;;
75038;SDS011;63609;49.992;14.512;2023-03-01T03:35:30;49.45;;;18.58;;
75038;SDS011;63609;49.992;14.512;2023-03-01T03:38:04;46.28;;;17.23;;
75038;SDS011;63609;49.992;14.512;2023-03-01T03:40:36;50.60;;;17.15;;
75038;SDS011;63609;49.992;14.512;2023-03-01T03:43:06;44.00;;;16.60;;
75038;SDS011;63609;49.992;14.512;2023-03-01T03:45:35;38.75;;;17.55;;
75038;SDS011;63609;49.992;14.512;2023-03-01T03:48:03;42.22;;;17.42;;
75038;SDS011;63609;49.992;14.512;2023-03-01T03:50:32;41.80;;;18.00;;
75038;SDS011;63609;49.992;14.512;2023-03-01T03:53:04;39.72;;;15.75;;
75038;SDS011;63609;49.992;14.512;2023-03-01T03:55:33;40.63;;;16.17;;
75038;SDS011;63609;49.992;14.512;2023-03-01T03:58:01;39.83;;;16.38;;
75038;SDS011;63609;49.992;14.512;2023-03-01T04:00:34;43.88;;;17.17;;
75038;SDS011;63609;49.992;14.512;2023-03-01T04:03:02;39.90;;;17.48;;
75038;SDS011;63609;49.992;14.512;2023-03-01T04:05:30;44.28;;;16.63;;
75038;SDS011;63609;49.992;14.512;2023-03-01T04:10:38;39.90;;;16.42;;
75038;SDS011;63609;49.992;14.512;2023-03-01T04:13:11;39.17;;;16.80;;
75038;SDS011;63609;49.992;14.512;2023-03-01T04:15:39;48.45;;;19.35;;
75038;SDS011;63609;49.992;14.512;2023-03-01T04:18:07;48.85;;;18.95;;
75038;SDS011;63609;49.992;14.512;2023-03-01T04:20:35;41.05;;;16.55;;
75038;SDS011;63609;49.992;14.512;2023-03-01T04:23:06;51.03;;;18.88;;
75038;SDS011;63609;49.992;14.512;2023-03-01T04:25:45;43.28;;;18.48;;
75038;SDS011;63609;49.992;14.512;2023-03-01T04:28:24;44.45;;;15.25;;
75038;SDS011;63609;49.992;14.512;2023-03-01T04:30:54;48.00;;;17.33;;
75038;SDS011;63609;49.992;14.512;2023-03-01T04:33:22;44.38;;;18.13;;
75038;SDS011;63609;49.992;14.512;2023-03-01T04:35:50;40.60;;;16.90;;
75038;SDS011;63609;49.992;14.512;2023-03-01T04:38:18;48.22;;;18.63;;
75038;SDS011;63609;49.992;14.512;2023-03-01T04:40:45;46.97;;;18.10;;
75038;SDS011;63609;49.992;14.512;2023-03-01T04:45:43;41.50;;;14.95;;
75038;SDS011;63609;49.992;14.512;2023-03-01T04:48:10;43.53;;;16.10;;
75038;SDS011;63609;49.992;14.512;2023-03-01T04:50:37;41.65;;;16.95;;
75038;SDS011;63609;49.992;14.512;2023-03-01T04:53:06;41.28;;;16.80;;
75038;SDS011;63609;49.992;14.512;2023-03-01T04:55:33;39.05;;;17.17;;
75038;SDS011;63609;49.992;14.512;2023-03-01T04:58:00;41.65;;;17.35;;
75038;SDS011;63609;49.992;14.512;2023-03-01T05:00:29;42.83;;;15.88;;
75038;SDS011;63609;49.992;14.512;2023-03-01T05:02:57;42.22;;;16.23;;
75038;SDS011;63609;49.992;14.512;2023-03-01T05:05:28;45.97;;;19.48;;
75038;SDS011;63609;49.992;14.512;2023-03-01T05:08:02;45.22;;;19.30;;
75038;SDS011;63609;49.992;14.512;2023-03-01T05:10:32;43.47;;;20.63;;
75038;SDS011;63609;49.992;14.512;2023-03-01T05:13:02;38.90;;;18.13;;
75038;SDS011;63609;49.992;14.512;2023-03-01T05:15:33;41.42;;;16.73;;
75038;SDS011;63609;49.992;14.512;2023-03-01T05:18:00;56.90;;;19.17;;
75038;SDS011;63609;49.992;14.512;2023-03-01T05:20:28;44.85;;;15.73;;
75038;SDS011;63609;49.992;14.512;2023-03-01T05:22:57;45.53;;;17.30;;
75038;SDS011;63609;49.992;14.512;2023-03-01T05:25:28;40.33;;;16.35;;
75038;SDS011;63609;49.992;14.512;2023-03-01T05:28:02;40.58;;;16.60;;
75038;SDS011;63609;49.992;14.512;2023-03-01T05:33:05;43.35;;;17.88;;
75038;SDS011;63609;49.992;14.512;2023-03-01T05:35:40;43.58;;;16.20;;
75038;SDS011;63609;49.992;14.512;2023-03-01T05:38:12;44.67;;;15.40;;
75038;SDS011;63609;49.992;14.512;2023-03-01T05:40:42;44.08;;;15.68;;
75038;SDS011;63609;49.992;14.512;2023-03-01T05:43:14;36.42;;;15.90;;
75038;SDS011;63609;49.992;14.512;2023-03-01T05:45:43;41.72;;;16.25;;
75038;SDS011;63609;49.992;14.512;2023-03-01T05:48:10;41.20;;;15.75;;
75038;SDS011;63609;49.992;14.512;2023-03-01T05:50:40;45.85;;;15.75;;
75038;SDS011;63609;49.992;14.512;2023-03-01T05:53:10;38.78;;;16.15;;
75038;SDS011;63609;49.992;14.512;2023-03-01T05:55:39;40.95;;;17.85;;
75038;SDS011;63609;49.992;14.512;2023-03-01T05:58:07;44.08;;;17.65;;
75038;SDS011;63609;49.992;14.512;2023-03-01T06:00:43;50.97;;;17.67;;
75038;SDS011;63609;49.992;14.512;2023-03-01T06:03:13;45.22;;;17.15;;
75038;SDS011;63609;49.992;14.512;2023-03-01T06:05:45;47.03;;;17.67;;
75038;SDS011;63609;49.992;14.512;2023-03-01T06:08:17;45.50;;;17.85;;
75038;SDS011;63609;49.992;14.512;2023-03-01T06:10:46;43.90;;;16.02;;
75038;SDS011;63609;49.992;14.512;2023-03-01T06:13:14;41.72;;;17.27;;
75038;SDS011;63609;49.992;14.512;2023-03-01T06:15:42;42.92;;;16.88;;
75038;SDS011;63609;49.992;14.512;2023-03-01T06:18:12;44.72;;;18.70;;
75038;SDS011;63609;49.992;14.512;2023-03-01T06:23:06;40.67;;;15.40;;
75038;SDS011;63609;49.992;14.512;2023-03-01T06:25:36;42.58;;;16.85;;
75038;SDS011;63609;49.992;14.512;2023-03-01T06:28:03;46.70;;;17.60;;
75038;SDS011;63609;49.992;14.512;2023-03-01T06:30:31;42.33;;;17.63;;
75038;SDS011;63609;49.992;14.512;2023-03-01T06:33:04;44.20;;;17.17;;
75038;SDS011;63609;49.992;14.512;2023-03-01T06:35:31;38.95;;;16.20;;
75038;SDS011;63609;49.992;14.512;2023-03-01T06:38:00;47.92;;;17.77;;
75038;SDS011;63609;49.992;14.512;2023-03-01T06:40:32;51.75;;;19.63;;
75038;SDS011;63609;49.992;14.512;2023-03-01T06:43:01;47.33;;;19.70;;
75038;SDS011;63609;49.992;14.512;2023-03-01T06:45:28;47.05;;;18.98;;
75038;SDS011;63609;49.992;14.512;2023-03-01T06:48:02;45.95;;;18.73;;
75038;SDS011;63609;49.992;14.512;2023-03-01T06:50:33;53.00;;;20.90;;
75038;SDS011;63609;49.992;14.512;2023-03-01T06:53:01;49.97;;;20.35;;
75038;SDS011;63609;49.992;14.512;2023-03-01T06:55:31;50.30;;;19.73;;
75038;SDS011;63609;49.992;14.512;2023-03-01T06:57:59;47.95;;;18.02;;
75038;SDS011;63609;49.992;14.512;2023-03-01T07:00:30;45.45;;;16.95;;
75038;SDS011;63609;49.992;14.512;2023-03-01T07:03:00;50.72;;;18.33;;
75038;SDS011;63609;49.992;14.512;2023-03-01T07:05:29;50.20;;;18.33;;
75038;SDS011;63609;49.992;14.512;2023-03-01T07:08:06;44.78;;;18.50;;
75038;SDS011;63609;49.992;14.512;2023-03-01T07:10:35;45.17;;;17.30;;
75038;SDS011;63609;49.992;14.512;2023-03-01T07:15:33;38.42;;;14.65;;
75038;SDS011;63609;49.992;14.512;2023-03-01T07:18:00;40.50;;;15.05;;
75038;SDS011;63609;49.992;14.512;2023-03-01T07:20:28;46.60;;;17.83;;
75038;SDS011;63609;49.992;14.512;2023-03-01T07:22:55;41.38;;;17.30;;
75038;SDS011;63609;49.992;14.512;2023-03-01T07:25:25;44.08;;;17.33;;
75038;SDS011;63609;49.992;14.512;2023-03-01T07:27:52;41.38;;;17.27;;
75038;SDS011;63609;49.992;14.512;2023-03-01T07:30:20;44.63;;;18.23;;
75038;SDS011;63609;49.992;14.512;2023-03-01T07:32:47;44.85;;;19.17;;
75038;SDS011;63609;49.992;14.512;2023-03-01T07:37:41;44.38;;;17.65;;
75038;SDS011;63609;49.992;14.512;2023-03-01T07:40:09;44.42;;;15.50;;
75038;SDS011;63609;49.992;14.512;2023-03-01T07:42:40;37.25;;;15.80;;
75038;SDS011;63609;49.992;14.512;2023-03-01T07:45:10;38.67;;;16.05;;
75038;SDS011;63609;49.992;14.512;2023-03-01T07:47:39;40.92;;;15.75;;
75038;SDS011;63609;49.992;14.512;2023-03-01T07:50:06;40.65;;;16.17;;
75038;SDS011;63609;49.992;14.512;2023-03-01T07:52:34;39.38;;;14.95;;
75038;SDS011;63609;49.992;14.512;2023-03-01T07:55:01;41.80;;;17.75;;
75038;SDS011;63609;49.992;14.512;2023-03-01T07:57:28;42.25;;;16.77;;
75038;SDS011;63609;49.992;14.512;2023-03-01T07:59:54;38.40;;;15.57;;
75038;SDS011;63609;49.992;14.512;2023-03-01T08:02:21;43.67;;;14.98;;
75038;SDS011;63609;49.992;14.512;2023-03-01T08:04:48;38.47;;;14.10;;
75038;SDS011;63609;49.992;14.512;2023-03-01T08:07:18;37.95;;;16.08;;
75038;SDS011;63609;49.992;14.512;2023-03-01T08:09:45;40.70;;;16.42;;
75038;SDS011;63609;49.992;14.512;2023-03-01T08:14:39;42.45;;;15.70;;
75038;SDS011;63609;49.992;14.512;2023-03-01T08:17:06;40.53;;;16.58;;
75038;SDS011;63609;49.992;14.512;2023-03-01T08:19:32;42.35;;;15.55;;
75038;SDS011;63609;49.992;14.512;2023-03-01T08:22:01;32.83;;;14.57;;
75038;SDS011;63609;49.992;14.512;2023-03-01T08:24:29;46.55;;;16.02;;
75038;SDS011;63609;49.992;14.512;2023-03-01T08:26:57;39.45;;;15.52;;
75038;SDS011;63609;49.992;14.512;2023-03-01T08:29:25;36.33;;;14.15;;
75038;SDS011;63609;49.992;14.512;2023-03-01T08:31:52;41.47;;;16.52;;
75038;SDS011;63609;49.992;14.512;2023-03-01T08:34:19;35.78;;;14.73;;
75038;SDS011;63609;49.992;14.512;2023-03-01T08:36:46;38.65;;;14.20;;
75038;SDS011;63609;49.992;14.512;2023-03-01T08:39:17;39.53;;;15.90;;
75038;SDS011;63609;49.992;14.512;2023-03-01T08:41:46;40.53;;;16.58;;
75038;SDS011;63609;49.992;14.512;2023-03-01T08:44:19;41.08;;;14.68;;
75038;SDS011;63609;49.992;14.512;2023-03-01T08:46:47;35.47;;;14.57;;
75038;SDS011;63609;49.992;14.512;2023-03-01T08:49:17;38.97;;;15.65;;
75038;SDS011;63609;49.992;14.512;2023-03-01T08:51:45;35.92;;;14.75;;
75038;SDS011;63609;49.992;14.512;2023-03-01T08:54:18;32.55;;;13.75;;
75038;SDS011;63609;49.992;14.512;2023-03-01T08:56:47;37.55;;;15.50;;
75038;SDS011;63609;49.992;14.512;2023-03-01T08:59:15;29.42;;;13.32;;
75038;SDS011;63609;49.992;14.512;2023-03-01T09:01:43;35.67;;;14.70;;
75038;SDS011;63609;49.992;14.512;2023-03-01T09:04:14;32.55;;;13.48;;
75038;SDS011;63609;49.992;14.512;2023-03-01T09:06:41;33.67;;;14.50;;
75038;SDS011;63609;49.992;14.512;2023-03-01T09:09:12;34.30;;;13.48;;
75038;SDS011;63609;49.992;14.512;2023-03-01T09:11:45;37.47;;;15.95;;
75038;SDS011;63609;49.992;14.512;2023-03-01T09:14:13;33.13;;;13.43;;
75038;SDS011;63609;49.992;14.512;2023-03-01T09:16:41;33.97;;;14.45;;
75038;SDS011;63609;49.992;14.512;2023-03-01T09:19:10;31.88;;;13.95;;
75038;SDS011;63609;49.992;14.512;2023-03-01T09:21:37;31.42;;;13.98;;
75038;SDS011;63609;49.992;14.512;2023-03-01T09:24:09;35.00;;;14.43;;
75038;SDS011;63609;49.992;14.512;2023-03-01T09:26:40;35.72;;;14.43;;
75038;SDS011;63609;49.992;14.512;2023-03-01T09:31:36;26.20;;;11.10;;
75038;SDS011;63609;49.992;14.512;2023-03-01T09:34:03;24.50;;;11.68;;
75038;SDS011;63609;49.992;14.512;2023-03-01T09:36:31;25.73;;;12.50;;
75038;SDS011;63609;49.992;14.512;2023-03-01T09:38:59;27.15;;;11.70;;
75038;SDS011;63609;49.992;14.512;2023-03-01T09:43:57;25.55;;;11.40;;
75038;SDS011;63609;49.992;14.512;2023-03-01T09:46:32;23.80;;;10.52;;
75038;SDS011;63609;49.992;14.512;2023-03-01T09:49:05;26.10;;;9.73;;
75038;SDS011;63609;49.992;14.512;2023-03-01T09:51:38;21.70;;;9.80;;
75038;SDS011;63609;49.992;14.512;2023-03-01T09:54:06;21.40;;;9.93;;
75038;SDS011;63609;49.992;14.512;2023-03-01T10:05:34;23.65;;;11.48;;
75038;SDS011;63609;49.992;14.512;2023-03-01T10:08:29;24.27;;;11.02;;
75038;SDS011;63609;49.992;14.512;2023-03-01T10:11:19;21.83;;;9.98;;
75038;SDS011;63609;49.992;14.512;2023-03-01T10:20:19;22.38;;;9.60;;
75038;SDS011;63609;49.992;14.512;2023-03-01T10:22:48;20.80;;;10.38;;
75038;SDS011;63609;49.992;14.512;2023-03-01T10:27:52;22.40;;;10.40;;
75038;SDS011;63609;49.992;14.512;2023-03-01T10:35:50;21.02;;;10.75;;
75038;SDS011;63609;49.992;14.512;2023-03-01T10:38:18;24.63;;;10.43;;
75038;SDS011;63609;49.992;14.512;2023-03-01T10:43:21;24.80;;;11.05;;
75038;SDS011;63609;49.992;14.512;2023-03-01T10:45:53;22.92;;;10.35;;
75038;SDS011;63609;49.992;14.512;2023-03-01T10:48:21;20.00;;;10.18;;
75038;SDS011;63609;49.992;14.512;2023-03-01T10:53:41;22.85;;;10.88;;
75038;SDS011;63609;49.992;14.512;2023-03-01T10:56:10;23.13;;;10.18;;
75038;SDS011;63609;49.992;14.512;2023-03-01T10:58:58;26.88;;;11.65;;
75038;SDS011;63609;49.992;14.512;2023-03-01T11:01:33;23.98;;;10.82;;
75038;SDS011;63609;49.992;14.512;2023-03-01T11:06:32;23.27;;;10.93;;
75038;SDS011;63609;49.992;14.512;2023-03-01T11:09:21;22.42;;;10.35;;
75038;SDS011;63609;49.992;14.512;2023-03-01T11:11:53;24.35;;;10.57;;
75038;SDS011;63609;49.992;14.512;2023-03-01T11:14:22;20.08;;;11.05;;
75038;SDS011;63609;49.992;14.512;2023-03-01T11:16:58;19.38;;;10.38;;
75038;SDS011;63609;49.992;14.512;2023-03-01T11:19:35;21.98;;;9.63;;
75038;SDS011;63609;49.992;14.512;2023-03-01T11:22:13;24.60;;;11.32;;
75038;SDS011;63609;49.992;14.512;2023-03-01T11:24:48;25.55;;;11.90;;
75038;SDS011;63609;49.992;14.512;2023-03-01T11:27:36;21.95;;;10.00;;
75038;SDS011;63609;49.992;14.512;2023-03-01T11:35:40;23.48;;;11.75;;
75038;SDS011;63609;49.992;14.512;2023-03-01T11:38:22;24.25;;;10.77;;
75038;SDS011;63609;49.992;14.512;2023-03-01T11:43:33;23.88;;;11.45;;
75038;SDS011;63609;49.992;14.512;2023-03-01T11:57:49;27.20;;;12.13;;
75038;SDS011;63609;49.992;14.512;2023-03-01T12:12:08;26.50;;;10.82;;
75038;SDS011;63609;49.992;14.512;2023-03-01T12:25:48;24.75;;;11.95;;
75038;SDS011;63609;49.992;14.512;2023-03-01T12:39:45;21.65;;;11.23;;
75038;SDS011;63609;49.992;14.512;2023-03-01T12:50:54;24.67;;;12.57;;
75038;SDS011;63609;49.992;14.512;2023-03-01T12:53:27;26.13;;;12.63;;
75038;SDS011;63609;49.992;14.512;2023-03-01T12:56:08;26.23;;;11.93;;
75038;SDS011;63609;49.992;14.512;2023-03-01T13:01:39;23.05;;;11.88;;
75038;SDS011;63609;49.992;14.512;2023-03-01T13:07:25;23.15;;;11.43;;
75038;SDS011;63609;49.992;14.512;2023-03-01T13:15:46;26.95;;;10.73;;
75038;SDS011;63609;49.992;14.512;2023-03-01T13:20:53;24.70;;;10.45;;
75038;SDS011;63609;49.992;14.512;2023-03-01T13:23:34;21.30;;;10.50;;
75038;SDS011;63609;49.992;14.512;2023-03-01T13:26:16;21.27;;;10.10;;
75038;SDS011;63609;49.992;14.512;2023-03-01T13:33:50;20.20;;;11.63;;
75038;SDS011;63609;49.992;14.512;2023-03-01T13:49:30;21.27;;;10.38;;
75038;SDS011;63609;49.992;14.512;2023-03-01T13:54:58;20.73;;;10.88;;
75038;SDS011;63609;49.992;14.512;2023-03-01T13:57:30;17.30;;;9.10;;
75038;SDS011;63609;49.992;14.512;2023-03-01T14:02:30;21.13;;;11.07;;
75038;SDS011;63609;49.992;14.512;2023-03-01T14:04:58;20.00;;;9.65;;
75038;SDS011;63609;49.992;14.512;2023-03-01T14:07:27;17.77;;;9.55;;
75038;SDS011;63609;49.992;14.512;2023-03-01T14:09:59;18.10;;;9.30;;
75038;SDS011;63609;49.992;14.512;2023-03-01T14:20:46;20.10;;;9.77;;
75038;SDS011;63609;49.992;14.512;2023-03-01T14:23:21;20.70;;;10.35;;
75038;SDS011;63609;49.992;14.512;2023-03-01T14:25:57;20.17;;;10.48;;
75038;SDS011;63609;49.992;14.512;2023-03-01T14:28:28;21.35;;;10.65;;
75038;SDS011;63609;49.992;14.512;2023-03-01T14:31:05;21.80;;;10.75;;
75038;SDS011;63609;49.992;14.512;2023-03-01T14:34:21;16.98;;;9.50;;
75038;SDS011;63609;49.992;14.512;2023-03-01T14:36:53;19.63;;;9.73;;
75038;SDS011;63609;49.992;14.512;2023-03-01T14:39:24;24.65;;;10.40;;
75038;SDS011;63609;49.992;14.512;2023-03-01T14:41:55;25.27;;;11.13;;
75038;SDS011;63609;49.992;14.512;2023-03-01T14:44:28;19.35;;;9.95;;
75038;SDS011;63609;49.992;14.512;2023-03-01T14:46:56;21.25;;;9.88;;
75038;SDS011;63609;49.992;14.512;2023-03-01T14:49:25;21.23;;;9.65;;
75038;SDS011;63609;49.992;14.512;2023-03-01T14:54:25;20.98;;;11.27;;
75038;SDS011;63609;49.992;14.512;2023-03-01T14:56:59;20.83;;;10.15;;
75038;SDS011;63609;49.992;14.512;2023-03-01T14:59:28;17.85;;;10.15;;
75038;SDS011;63609;49.992;14.512;2023-03-01T15:01:56;20.20;;;9.90;;
75038;SDS011;63609;49.992;14.512;2023-03-01T15:04:24;21.30;;;10.25;;
75038;SDS011;63609;49.992;14.512;2023-03-01T15:06:56;22.02;;;10.75;;
75038;SDS011;63609;49.992;14.512;2023-03-01T15:09:32;22.08;;;10.05;;
75038;SDS011;63609;49.992;14.512;2023-03-01T15:14:54;19.27;;;9.75;;
75038;SDS011;63609;49.992;14.512;2023-03-01T15:17:36;23.88;;;10.63;;
75038;SDS011;63609;49.992;14.512;2023-03-01T15:20:06;18.52;;;9.68;;
75038;SDS011;63609;49.992;14.512;2023-03-01T15:22:43;21.25;;;10.20;;
75038;SDS011;63609;49.992;14.512;2023-03-01T15:25:18;21.20;;;10.38;;
75038;SDS011;63609;49.992;14.512;2023-03-01T15:27:48;20.90;;;10.10;;
75038;SDS011;63609;49.992;14.512;2023-03-01T15:30:21;21.88;;;10.25;;
75038;SDS011;63609;49.992;14.512;2023-03-01T15:35:50;20.30;;;9.65;;
75038;SDS011;63609;49.992;14.512;2023-03-01T15:40:51;20.55;;;10.43;;
75038;SDS011;63609;49.992;14.512;2023-03-01T15:43:41;17.95;;;10.25;;
75038;SDS011;63609;49.992;14.512;2023-03-01T15:46:30;23.10;;;10.02;;
75038;SDS011;63609;49.992;14.512;2023-03-01T15:49:02;23.33;;;10.32;;
75038;SDS011;63609;49.992;14.512;2023-03-01T15:51:33;20.60;;;10.45;;
75038;SDS011;63609;49.992;14.512;2023-03-01T15:54:06;19.65;;;9.85;;
75038;SDS011;63609;49.992;14.512;2023-03-01T15:56:41;21.00;;;10.32;;
75038;SDS011;63609;49.992;14.512;2023-03-01T15:59:08;20.00;;;9.77;;
75038;SDS011;63609;49.992;14.512;2023-03-01T16:01:38;21.67;;;9.15;;
75038;SDS011;63609;49.992;14.512;2023-03-01T16:04:09;23.67;;;9.90;;
75038;SDS011;63609;49.992;14.512;2023-03-01T16:06:47;19.63;;;9.68;;
75038;SDS011;63609;49.992;14.512;2023-03-01T16:09:22;21.88;;;9.77;;
75038;SDS011;63609;49.992;14.512;2023-03-01T16:11:50;20.48;;;9.63;;
75038;SDS011;63609;49.992;14.512;2023-03-01T16:14:18;21.45;;;9.82;;
75038;SDS011;63609;49.992;14.512;2023-03-01T16:16:45;17.52;;;9.23;;
75038;SDS011;63609;49.992;14.512;2023-03-01T16:19:14;20.23;;;9.68;;
75038;SDS011;63609;49.992;14.512;2023-03-01T16:21:42;20.38;;;10.25;;
75038;SDS011;63609;49.992;14.512;2023-03-01T16:24:13;21.23;;;10.70;;
75038;SDS011;63609;49.992;14.512;2023-03-01T16:26:41;19.50;;;10.50;;
75038;SDS011;63609;49.992;14.512;2023-03-01T16:29:08;18.73;;;9.02;;
75038;SDS011;63609;49.992;14.512;2023-03-01T16:31:35;20.50;;;10.18;;
75038;SDS011;63609;49.992;14.512;2023-03-01T16:34:03;19.90;;;9.73;;
75038;SDS011;63609;49.992;14.512;2023-03-01T16:36:30;23.73;;;10.55;;
75038;SDS011;63609;49.992;14.512;2023-03-01T16:38:59;19.48;;;9.95;;
75038;SDS011;63609;49.992;14.512;2023-03-01T16:41:27;21.52;;;10.50;;
75038;SDS011;63609;49.992;14.512;2023-03-01T16:43:55;28.08;;;10.18;;
75038;SDS011;63609;49.992;14.512;2023-03-01T16:46:23;23.02;;;11.25;;
75038;SDS011;63609;49.992;14.512;2023-03-01T16:48:54;23.25;;;11.00;;
75038;SDS011;63609;49.992;14.512;2023-03-01T16:51:22;19.25;;;10.07;;
75038;SDS011;63609;49.992;14.512;2023-03-01T16:53:50;21.13;;;10.15;;
75038;SDS011;63609;49.992;14.512;2023-03-01T16:56:18;23.75;;;10.90;;
75038;SDS011;63609;49.992;14.512;2023-03-01T16:58:45;21.58;;;10.73;;
75038;SDS011;63609;49.992;14.512;2023-03-01T17:01:16;21.48;;;10.95;;
75038;SDS011;63609;49.992;14.512;2023-03-01T17:03:46;20.42;;;10.77;;
75038;SDS011;63609;49.992;14.512;2023-03-01T17:06:16;25.52;;;11.38;;
75038;SDS011;63609;49.992;14.512;2023-03-01T17:08:46;25.08;;;11.75;;
75038;SDS011;63609;49.992;14.512;2023-03-01T17:11:14;26.27;;;12.10;;
75038;SDS011;63609;49.992;14.512;2023-03-01T17:13:43;28.30;;;11.02;;
75038;SDS011;63609;49.992;14.512;2023-03-01T17:16:12;26.58;;;11.13;;
75038;SDS011;63609;49.992;14.512;2023-03-01T17:18:41;21.52;;;10.90;;
75038;SDS011;63609;49.992;14.512;2023-03-01T17:21:08;26.17;;;11.10;;
75038;SDS011;63609;49.992;14.512;2023-03-01T17:23:37;23.48;;;11.10;;
75038;SDS011;63609;49.992;14.512;2023-03-01T17:26:06;24.85;;;11.50;;
75038;SDS011;63609;49.992;14.512;2023-03-01T17:28:34;23.38;;;11.43;;
75038;SDS011;63609;49.992;14.512;2023-03-01T17:31:05;22.80;;;10.68;;
75038;SDS011;63609;49.992;14.512;2023-03-01T17:33:34;25.42;;;11.27;;
75038;SDS011;63609;49.992;14.512;2023-03-01T17:36:01;28.98;;;11.90;;
75038;SDS011;63609;49.992;14.512;2023-03-01T17:38:29;26.95;;;11.68;;
75038;SDS011;63609;49.992;14.512;2023-03-01T17:40:57;21.65;;;11.60;;
75038;SDS011;63609;49.992;14.512;2023-03-01T17:43:26;24.73;;;11.30;;